Eldorado, OK (73537)

5:37 PM CST on March 01, 2015 (GMT -0600)
Corinth | Change Station
CLOSE
Current Station
Personal Weather Station
Location: Eldorado, OK
Elevation: 1476 ft
Nearby Weather Stations

Elev 1476 ft 34.50 °N, 99.76 °W | Updated 9 seconds ago

Overcast
Overcast
35.8 °F
Feels Like 29 °F
N
9.8
Wind Variable Wind from NE
Gusts 10.7 mph

Today
High -- | Low -- °F
--% Chance of Precip.
Yesterday
High -- | Low -- °F
Precip. -- in
7:07 AM 6:34 PM
Waxing Gibbous, 88% visible
Pressure 30.36 in
Visibility 10.0 miles
Clouds Overcast 1900 ft
Windchill 29 °F
Dew Point 30 °F
Humidity 78%
Rainfall 0.05 in
Snow Depth Not available.
UV 0 out of 12
Pollen 7.00 out of 12
Air Quality Not available.
Flu Activity Not available.
METAR KAXS 012315Z AUTO 05010KT 10SM OVC019 02/M02 A3036 RMK AO2 T00201017

More Conditions Fewer Conditions

Pressure 30.36 in
Visibility 10.0 miles
Clouds Overcast 1900 ft
Windchill 29 °F
Dew Point 30 °F
Humidity 78%
Rainfall 0.05 in
Snow Depth Not available.
UV 0 out of 12
Pollen 7.00 out of 12
Air Quality Not available.
Flu Activity Not available.
METAR KAXS 012315Z AUTO 05010KT 10SM OVC019 02/M02 A3036 RMK AO2 T00201017

More Conditions Fewer Conditions

10-Day Weather Forecast

Almanac

Astronomy

Mar. 01, 2015 Rise Set
Actual Time
Civil Twilight
Nautical Twilight
Astronomical Twilight
Moon
Length of Visible Light
Length of Day
Tomorrow will be .
, % of the Moon is Illuminated

Today's Extremes

State Highs State Lows

Community

WunderPhotos

Upload Photos

1,801,610 photos uploaded!

WunderBlogs® & News

Nearby

Air Quality

  Air Quality AQ Index Pollutant
Not available.

Snow Depth

Station Depth Elevation

Earthquake Activity

City Distance Mag. Time & Date
Minimum magnitude displayed is 2.5.

Coastal Water Temperatures

Place Temperature

Nearby Weather Stations